Time;durP1;ratioP1;P1;durP2;ratioP2;P2;SDS_P1;SDS_P2;PMS_P1;PMS_P2;Temp;Humidity;BMP_temperature;BMP_pressure;BME280_temperature;BME280_humidity;BME280_pressure;Samples;Min_cycle;Max_cycle;Signal;HPM_P1;HPM_P2
2021/06/30 00:01:42;;;;;;;0.80;0.32;;;;;;;24.56;49.89;97839.34;4994228;28;20035;-62
2021/06/30 00:04:08;;;;;;;0.73;0.25;;;;;;;24.95;49.49;97833.34;4976353;28;20041;-63
2021/06/30 00:06:34;;;;;;;1.88;0.43;;;;;;;25.45;48.44;97832.03;4992765;28;20070;-62
2021/06/30 00:09:00;;;;;;;0.75;0.50;;;;;;;26.04;47.74;97840.91;4994027;28;20030;-62
2021/06/30 00:11:26;;;;;;;0.68;0.68;;;;;;;26.71;46.30;97843.00;4992888;28;20038;-62
2021/06/30 00:13:53;;;;;;;0.45;0.38;;;;;;;27.41;44.97;97841.34;4993419;28;20054;-63
2021/06/30 00:16:19;;;;;;;0.90;0.60;;;;;;;28.04;44.03;97836.56;4993674;28;20551;-63
2021/06/30 00:18:47;;;;;;;0.28;0.22;;;;;;;28.65;43.05;97838.44;4994240;28;20041;-63
2021/06/30 00:21:14;;;;;;;0.20;0.20;;;;;;;29.21;42.41;97844.50;4993364;28;20049;-65
2021/06/30 00:23:39;;;;;;;0.40;0.40;;;;;;;29.77;41.96;97841.97;4993340;28;20077;-63
2021/06/30 00:26:05;;;;;;;0.68;0.68;;;;;;;30.31;41.15;97842.53;4993470;28;20061;-64
2021/06/30 00:28:31;;;;;;;0.30;0.30;;;;;;;30.78;40.82;97842.97;4993106;28;20042;-63
2021/06/30 00:30:58;;;;;;;1.98;0.30;;;;;;;31.19;40.23;97851.34;4993193;28;20117;-64
2021/06/30 00:33:24;;;;;;;0.30;0.30;;;;;;;31.62;39.83;97868.59;4975874;28;20026;-63
2021/06/30 00:35:50;;;;;;;0.32;0.32;;;;;;;32.00;39.51;97863.47;4993354;28;20037;-62
2021/06/30 00:38:16;;;;;;;2.90;0.45;;;;;;;32.41;39.21;97870.88;4993090;28;20030;-62
2021/06/30 00:40:44;;;;;;;0.25;0.25;;;;;;;32.58;39.27;97867.22;4992561;28;20038;-63
2021/06/30 00:43:10;;;;;;;1.20;0.95;;;;;;;32.64;38.97;97868.44;4993649;28;20034;-63
2021/06/30 00:45:36;;;;;;;0.90;0.47;;;;;;;32.93;38.99;97876.97;4993130;28;20047;-62
2021/06/30 00:48:02;;;;;;;0.57;0.20;;;;;;;33.27;38.36;97875.72;4995696;28;20092;-62
2021/06/30 00:50:28;;;;;;;0.70;0.70;;;;;;;33.61;38.29;97858.94;4978789;28;20510;-62
2021/06/30 00:52:53;;;;;;;0.43;0.43;;;;;;;34.04;37.41;97863.63;4995175;28;20118;-63
2021/06/30 00:55:19;;;;;;;0.20;0.20;;;;;;;34.47;36.83;97863.38;4996497;28;20041;-62
2021/06/30 00:57:46;;;;;;;0.73;0.73;;;;;;;34.91;36.58;97858.16;4995687;28;20054;-62
2021/06/30 01:00:12;;;;;;;0.40;0.40;;;;;;;35.25;36.22;97849.63;4996697;28;20026;-62
2021/06/30 01:02:38;;;;;;;0.08;0.08;;;;;;;35.60;35.80;97852.50;4996443;28;20034;-61
2021/06/30 01:05:04;;;;;;;0.38;0.30;;;;;;;35.90;35.34;97854.59;4996261;28;20026;-62
2021/06/30 01:07:30;;;;;;;0.20;0.20;;;;;;;36.26;34.94;97868.34;4978442;28;20036;-62
2021/06/30 01:09:56;;;;;;;0.30;0.30;;;;;;;36.56;35.13;97854.44;4996875;28;20030;-62
2021/06/30 01:12:22;;;;;;;0.35;0.35;;;;;;;36.86;34.69;97861.34;4995986;28;20108;-62
2021/06/30 01:14:47;;;;;;;0.30;0.20;;;;;;;37.20;33.88;97861.13;4978356;28;20026;-61
2021/06/30 01:17:13;;;;;;;0.20;0.20;;;;;;;37.68;33.49;97859.78;4996728;28;20499;-62
2021/06/30 01:19:39;;;;;;;0.28;0.25;;;;;;;38.06;33.20;97860.63;4995970;28;20036;-62
2021/06/30 01:22:06;;;;;;;0.57;0.47;;;;;;;38.43;32.88;97849.97;4995387;28;20061;-62
2021/06/30 01:24:37;;;;;;;0.30;0.30;;;;;;;38.79;32.32;97843.38;4995929;28;20404;-61
2021/06/30 01:27:04;;;;;;;0.20;0.20;;;;;;;39.18;32.04;97844.41;4996649;28;20042;-62
2021/06/30 01:29:30;;;;;;;0.22;0.15;;;;;;;39.52;31.68;97848.78;4994068;28;20133;-62
2021/06/30 01:31:56;;;;;;;0.05;0.05;;;;;;;39.94;31.37;97843.84;4995878;28;20208;-62
2021/06/30 01:34:22;;;;;;;0.30;0.20;;;;;;;40.56;30.74;97844.84;4996105;28;20435;-63
2021/06/30 01:36:53;;;;;;;0.25;0.13;;;;;;;41.17;29.96;97831.25;4978360;28;20042;-62
2021/06/30 01:39:20;;;;;;;0.20;0.17;;;;;;;41.70;29.69;97839.19;4977704;28;20034;-62
2021/06/30 01:41:47;;;;;;;0.38;0.38;;;;;;;42.13;29.40;97854.84;4995463;28;20046;-61
2021/06/30 01:44:13;;;;;;;0.40;0.40;;;;;;;42.50;28.83;97846.34;4995905;28;20074;-62
2021/06/30 01:46:39;;;;;;;2.95;0.52;;;;;;;42.76;28.72;97839.56;4978122;28;20041;-61
2021/06/30 01:49:05;;;;;;;0.55;0.55;;;;;;;43.14;28.24;97836.28;4995330;28;20117;-63
2021/06/30 01:51:33;;;;;;;0.10;0.10;;;;;;;43.46;28.18;97825.38;4996134;28;20038;-63
2021/06/30 01:54:00;;;;;;;0.10;0.10;;;;;;;43.47;28.13;97829.88;4995469;28;20038;-63
2021/06/30 01:56:28;;;;;;;0.40;0.40;;;;;;;43.83;27.94;97825.31;4995369;28;20092;-63
2021/06/30 01:59:01;;;;;;;1.35;0.20;;;;;;;44.17;27.84;97831.16;4996091;28;20061;-63
2021/06/30 02:01:28;;;;;;;0.30;0.30;;;;;;;44.75;26.94;97829.97;4995498;28;20518;-63
2021/06/30 02:03:56;;;;;;;0.30;0.30;;;;;;;45.52;26.18;97832.66;4995663;28;20038;-63
2021/06/30 02:06:25;;;;;;;1.05;0.30;;;;;;;46.14;25.89;97825.84;4993249;28;20144;-62
2021/06/30 02:08:58;;;;;;;0.63;0.40;;;;;;;46.46;25.26;97823.22;4995461;28;20039;-63
2021/06/30 02:11:25;;;;;;;0.30;0.30;;;;;;;46.67;25.33;97826.97;4994860;28;20038;-64
2021/06/30 02:13:52;;;;;;;1.00;0.20;;;;;;;46.26;25.99;97823.97;4994554;28;20050;-63
2021/06/30 02:16:19;;;;;;;0.28;0.28;;;;;;;46.87;25.34;97828.31;4995694;28;20400;-65
2021/06/30 02:18:45;;;;;;;0.30;0.13;;;;;;;45.91;26.72;97830.50;4977212;28;20041;-63
2021/06/30 02:21:11;;;;;;;0.10;0.10;;;;;;;45.98;26.44;97835.09;4994566;28;20026;-64
2021/06/30 02:23:37;;;;;;;0.10;0.10;;;;;;;46.02;26.17;97823.28;4994370;28;20046;-62
2021/06/30 02:26:03;;;;;;;0.17;0.17;;;;;;;45.59;26.91;97830.16;4978157;28;20030;-62
2021/06/30 02:28:29;;;;;;;0.20;0.20;;;;;;;45.77;26.16;97826.25;4994639;28;20467;-62
2021/06/30 02:30:55;;;;;;;0.22;0.22;;;;;;;46.05;26.07;97828.88;4994674;28;20031;-63
2021/06/30 02:33:21;;;;;;;0.38;0.38;;;;;;;45.99;26.14;97831.69;4978211;28;20040;-62
2021/06/30 02:35:47;;;;;;;0.20;0.20;;;;;;;45.76;26.31;97826.75;4977043;28;20031;-63
2021/06/30 02:38:13;;;;;;;0.10;0.10;;;;;;;45.93;26.12;97830.00;4994286;28;20558;-63
2021/06/30 02:40:39;;;;;;;0.40;0.40;;;;;;;46.57;25.24;97845.81;4992762;28;20073;-63
2021/06/30 02:43:06;;;;;;;0.20;0.20;;;;;;;47.27;24.57;97834.66;4994974;28;20030;-62
2021/06/30 02:45:32;;;;;;;0.20;0.20;;;;;;;47.85;24.03;97826.06;4994387;28;20078;-62
2021/06/30 02:47:58;;;;;;;0.20;0.20;;;;;;;48.24;23.60;97840.19;4993915;28;20519;-63
2021/06/30 02:50:25;;;;;;;0.28;0.28;;;;;;;48.62;23.20;97848.94;4994515;28;20034;-63
2021/06/30 02:52:51;;;;;;;0.32;0.32;;;;;;;48.97;22.94;97842.03;4994280;28;20438;-62
2021/06/30 02:55:18;;;;;;;0.30;0.30;;;;;;;49.17;22.59;97844.75;4993648;28;20027;-62
2021/06/30 02:57:44;;;;;;;0.35;0.35;;;;;;;49.49;22.64;97847.56;4994215;28;20116;-62
2021/06/30 03:00:14;;;;;;;0.20;0.20;;;;;;;49.78;22.21;97837.56;4995754;28;20034;-64
2021/06/30 03:02:40;;;;;;;0.30;0.30;;;;;;;50.07;21.94;97858.81;4975661;28;20030;-63
2021/06/30 03:05:07;;;;;;;0.30;0.30;;;;;;;50.35;21.81;97848.50;4975899;28;20376;-61
2021/06/30 03:07:32;;;;;;;0.20;0.20;;;;;;;50.47;21.77;97853.78;4994322;28;20045;-61
2021/06/30 03:09:58;;;;;;;0.10;0.10;;;;;;;50.58;21.81;97861.75;4993135;28;20030;-63
2021/06/30 03:12:24;;;;;;;0.40;0.40;;;;;;;50.59;21.88;97860.41;4993743;28;20055;-63
2021/06/30 03:14:50;;;;;;;0.40;0.30;;;;;;;50.60;21.72;97846.59;4993943;28;20100;-64
2021/06/30 03:17:16;;;;;;;0.40;0.40;;;;;;;50.54;21.95;97858.28;4994231;28;20045;-63
2021/06/30 03:19:42;;;;;;;0.40;0.40;;;;;;;50.69;21.77;97866.00;4993280;28;20062;-63
2021/06/30 03:22:07;;;;;;;0.20;0.20;;;;;;;50.57;21.78;97854.31;4993675;28;20117;-62
2021/06/30 03:24:33;;;;;;;0.30;0.30;;;;;;;50.03;22.57;97858.28;4976504;28;20026;-63
2021/06/30 03:26:59;;;;;;;0.30;0.30;;;;;;;49.18;23.19;97860.13;4993918;28;20030;-63
2021/06/30 03:29:25;;;;;;;0.30;0.30;;;;;;;49.00;23.29;97859.25;4993788;28;20038;-64
2021/06/30 03:31:51;;;;;;;0.10;0.10;;;;;;;48.44;23.76;97858.84;4993226;28;20038;-63
2021/06/30 03:34:17;;;;;;;0.30;0.30;;;;;;;48.22;23.86;97860.25;4993863;28;20038;-63
2021/06/30 03:36:42;;;;;;;0.20;0.20;;;;;;;48.93;23.01;97851.03;4975736;28;20034;-63
2021/06/30 03:39:08;;;;;;;0.35;0.35;;;;;;;49.73;22.11;97852.94;4993961;28;20435;-65
2021/06/30 03:41:34;;;;;;;0.30;0.30;;;;;;;50.12;21.81;97848.47;4994124;28;20061;-64
2021/06/30 03:44:00;;;;;;;0.40;0.40;;;;;;;49.99;21.83;97851.94;4994230;28;20076;-64
2021/06/30 03:46:25;;;;;;;0.20;0.20;;;;;;;50.41;21.28;97852.22;4993593;28;20042;-62
2021/06/30 03:48:51;;;;;;;0.30;0.30;;;;;;;50.93;20.98;97850.78;4975597;28;20036;-64
2021/06/30 03:51:17;;;;;;;0.20;0.20;;;;;;;51.24;20.62;97848.84;4993760;28;20443;-64
2021/06/30 03:53:43;;;;;;;0.57;0.43;;;;;;;51.64;20.66;97855.28;4993110;28;20498;-63
2021/06/30 03:56:08;;;;;;;0.22;0.22;;;;;;;52.21;19.87;97838.97;4993379;28;20038;-64
2021/06/30 03:58:34;;;;;;;0.20;0.20;;;;;;;52.86;19.12;97841.53;4994233;28;20092;-62
2021/06/30 04:01:00;;;;;;;0.20;0.20;;;;;;;53.46;18.69;97846.44;4993610;28;20081;-62
2021/06/30 04:03:26;;;;;;;0.20;0.20;;;;;;;52.73;19.48;97843.03;4993105;28;20064;-63
2021/06/30 04:05:52;;;;;;;0.35;0.35;;;;;;;51.55;20.55;97835.13;4993281;28;20535;-64
2021/06/30 04:08:17;;;;;;;0.30;0.30;;;;;;;49.48;22.73;97837.19;4993963;28;20031;-63
2021/06/30 04:10:43;;;;;;;0.63;0.63;;;;;;;47.42;24.84;97838.28;4993281;28;20063;-64
2021/06/30 04:13:09;;;;;;;0.50;0.50;;;;;;;45.61;26.66;97835.44;4992731;28;20058;-63
2021/06/30 04:15:36;;;;;;;0.55;0.52;;;;;;;44.06;28.11;97837.50;4993087;28;20026;-63
2021/06/30 04:18:05;;;;;;;0.40;0.40;;;;;;;42.74;29.53;97833.47;4991926;28;20540;-65
2021/06/30 04:20:32;;;;;;;0.30;0.30;;;;;;;41.58;30.26;97851.59;4993569;28;20038;-63
2021/06/30 04:22:58;;;;;;;0.43;0.43;;;;;;;40.77;30.90;97849.06;4996637;28;20022;-64
2021/06/30 04:25:24;;;;;;;0.35;0.35;;;;;;;40.17;31.09;97846.91;4997501;28;20538;-63
2021/06/30 04:27:49;;;;;;;0.52;0.30;;;;;;;39.79;31.25;97839.00;4996870;28;20532;-64
2021/06/30 04:30:15;;;;;;;0.95;0.60;;;;;;;39.82;30.86;97838.09;4996407;28;20030;-64
2021/06/30 04:32:41;;;;;;;0.10;0.10;;;;;;;40.17;29.91;97846.91;4979571;28;20057;-64
2021/06/30 04:35:08;;;;;;;0.10;0.10;;;;;;;40.43;29.18;97833.31;4996929;28;20030;-64
2021/06/30 04:37:34;;;;;;;0.15;0.15;;;;;;;40.89;28.43;97841.69;4996466;28;20400;-62
2021/06/30 04:40:01;;;;;;;0.20;0.20;;;;;;;42.78;25.94;97834.13;4994912;28;20030;-64
2021/06/30 04:42:26;;;;;;;0.20;0.20;;;;;;;44.42;24.07;97835.75;4997209;28;20033;-64
2021/06/30 04:44:52;;;;;;;0.20;0.20;;;;;;;45.16;23.35;97829.56;4996586;28;20455;-64
2021/06/30 04:47:18;;;;;;;1.27;0.50;;;;;;;46.98;21.47;97840.09;4996490;28;20034;-67
2021/06/30 04:49:44;;;;;;;0.30;0.30;;;;;;;47.73;21.03;97834.66;4997141;28;20044;-66
2021/06/30 04:52:10;;;;;;;0.38;0.20;;;;;;;47.08;21.99;97831.25;4996519;28;20113;-68
2021/06/30 04:54:36;;;;;;;0.98;0.40;;;;;;;46.74;22.43;97842.41;4994626;28;20081;-63
2021/06/30 04:57:02;;;;;;;0.30;0.30;;;;;;;47.75;21.19;97818.81;4994779;28;20058;-65
2021/06/30 04:59:27;;;;;;;0.52;0.20;;;;;;;48.63;20.46;97830.94;4997068;28;20034;-63
2021/06/30 05:01:53;;;;;;;0.30;0.30;;;;;;;49.60;19.75;97832.22;4996010;28;20061;-62
2021/06/30 05:04:19;;;;;;;0.50;0.50;;;;;;;50.20;19.45;97826.19;4996091;28;20468;-62
2021/06/30 05:06:46;;;;;;;0.40;0.40;;;;;;;50.46;19.41;97814.25;4997044;28;20026;-61
2021/06/30 05:09:12;;;;;;;0.85;0.85;;;;;;;50.62;19.17;97823.53;4996345;28;20125;-62
2021/06/30 05:11:38;;;;;;;0.20;0.20;;;;;;;50.83;19.05;97826.94;4995609;28;20030;-61
2021/06/30 05:14:04;;;;;;;0.35;0.35;;;;;;;51.08;18.99;97825.00;4978336;28;20061;-62
2021/06/30 05:16:29;;;;;;;0.30;0.30;;;;;;;51.43;18.78;97823.50;4978568;28;20030;-62
2021/06/30 05:18:55;;;;;;;0.30;0.30;;;;;;;51.65;18.70;97821.78;4995839;28;20484;-61
2021/06/30 05:21:23;;;;;;;0.50;0.50;;;;;;;51.42;18.52;97807.31;4996012;28;20540;-63
2021/06/30 05:23:49;;;;;;;0.45;0.30;;;;;;;51.25;19.02;97819.06;4978377;28;20096;-63
2021/06/30 05:26:14;;;;;;;0.20;0.20;;;;;;;51.18;19.19;97813.78;4993714;28;20042;-63
2021/06/30 05:28:40;;;;;;;0.70;0.60;;;;;;;51.34;19.00;97815.06;4994852;28;20047;-63
2021/06/30 05:31:06;;;;;;;0.20;0.20;;;;;;;51.77;18.29;97802.84;4995532;28;20026;-62
2021/06/30 05:33:33;;;;;;;1.08;0.38;;;;;;;51.79;18.33;97808.94;4995223;28;20112;-62
2021/06/30 05:35:59;;;;;;;0.50;0.45;;;;;;;52.06;18.14;97808.50;4995221;28;20400;-64
2021/06/30 05:38:25;;;;;;;0.50;0.50;;;;;;;51.79;18.36;97803.09;4977650;28;20041;-64
2021/06/30 05:40:51;;;;;;;0.40;0.40;;;;;;;51.79;18.15;97808.16;4995844;28;20141;-65
2021/06/30 05:43:17;;;;;;;0.65;0.65;;;;;;;51.40;18.52;97801.19;4995106;28;20089;-63
2021/06/30 05:45:43;;;;;;;0.60;0.45;;;;;;;51.23;18.81;97795.41;4995364;28;20365;-63
2021/06/30 05:48:09;;;;;;;1.58;0.32;;;;;;;50.93;19.05;97804.84;4995197;28;20085;-62
2021/06/30 05:50:35;;;;;;;0.63;0.63;;;;;;;50.28;19.36;97798.06;4978135;28;20034;-63
2021/06/30 05:53:01;;;;;;;0.30;0.30;;;;;;;49.90;19.51;97793.81;4995020;28;20277;-63
2021/06/30 05:55:28;;;;;;;0.20;0.20;;;;;;;49.45;20.01;97782.84;4994437;28;20403;-66
2021/06/30 05:57:54;;;;;;;0.65;0.43;;;;;;;48.49;20.65;97794.06;4994354;28;20038;-65
2021/06/30 06:00:21;;;;;;;0.32;0.20;;;;;;;47.20;21.64;97780.69;4993258;28;20034;-65
2021/06/30 06:02:49;;;;;;;0.25;0.25;;;;;;;46.17;22.41;97777.63;4993008;28;20038;-66
2021/06/30 06:05:16;;;;;;;0.57;0.57;;;;;;;45.00;22.94;97780.72;4993262;28;20034;-63
2021/06/30 06:07:42;;;;;;;0.35;0.30;;;;;;;43.78;24.32;97776.03;4994100;28;20539;-65
2021/06/30 06:10:10;;;;;;;0.40;0.40;;;;;;;42.74;25.10;97767.88;4993017;28;20034;-64
2021/06/30 06:12:37;;;;;;;0.52;0.52;;;;;;;41.98;25.51;97773.09;4992673;28;20062;-64
2021/06/30 06:15:08;;;;;;;0.13;0.13;;;;;;;41.29;25.99;97769.91;4993852;28;20041;-63
2021/06/30 06:17:34;;;;;;;0.17;0.17;;;;;;;40.67;26.32;97784.88;4990382;28;20026;-64
2021/06/30 06:20:00;;;;;;;0.13;0.13;;;;;;;40.00;26.69;97780.84;4992785;28;20091;-65
2021/06/30 06:22:25;;;;;;;0.35;0.35;;;;;;;39.64;26.67;97776.22;4983666;28;20030;-64
2021/06/30 06:24:51;;;;;;;0.75;0.47;;;;;;;39.19;26.92;97775.03;4992855;28;20022;-63
2021/06/30 06:27:17;;;;;;;0.30;0.30;;;;;;;38.86;27.12;97786.59;4983171;28;20022;-64
2021/06/30 06:29:43;;;;;;;0.47;0.47;;;;;;;38.56;27.37;97784.91;4992797;28;20104;-66
2021/06/30 06:32:09;;;;;;;0.20;0.20;;;;;;;38.35;27.00;97780.53;4993227;28;20033;-67
2021/06/30 06:34:35;;;;;;;0.30;0.30;;;;;;;37.98;27.57;97774.81;4992533;28;20048;-66
2021/06/30 06:37:15;;;;;;;0.30;0.30;;;;;;;37.57;27.20;97769.63;4993448;28;20030;-67
2021/06/30 06:39:42;;;;;;;0.20;0.20;;;;;;;37.15;27.82;97781.50;4992284;28;20052;-63
2021/06/30 06:42:11;;;;;;;0.10;0.10;;;;;;;36.89;27.74;97774.66;4992369;28;20034;-64
2021/06/30 06:44:39;;;;;;;0.17;0.17;;;;;;;36.70;27.54;97776.22;4981781;28;20038;-64
2021/06/30 06:47:05;;;;;;;0.47;0.43;;;;;;;36.52;28.06;97785.09;4992577;28;20030;-66
2021/06/30 06:49:31;;;;;;;0.10;0.10;;;;;;;36.28;27.81;97783.03;4992537;28;20112;-66
2021/06/30 06:51:59;;;;;;;0.25;0.25;;;;;;;36.11;27.70;97784.09;4992152;28;20041;-67
2021/06/30 06:54:25;;;;;;;0.10;0.10;;;;;;;36.05;27.72;97780.13;4992173;28;20034;-64
2021/06/30 06:56:51;;;;;;;0.30;0.30;;;;;;;35.99;27.48;97787.56;4991663;28;20065;-62
2021/06/30 06:59:17;;;;;;;0.15;0.15;;;;;;;35.86;27.50;97782.44;4992193;28;20041;-63
2021/06/30 07:01:43;;;;;;;0.40;0.40;;;;;;;35.78;27.46;97784.59;4991579;28;20492;-64
2021/06/30 07:04:09;;;;;;;0.65;0.60;;;;;;;35.71;27.29;97778.16;4991531;28;20487;-64
2021/06/30 07:06:35;;;;;;;0.32;0.32;;;;;;;35.61;27.29;97777.84;4993459;28;20033;-65
2021/06/30 07:09:03;;;;;;;0.65;0.43;;;;;;;35.57;27.22;97762.84;4972410;28;20065;-65
2021/06/30 07:11:29;;;;;;;0.30;0.30;;;;;;;35.53;27.40;97769.84;4976645;28;20034;-64
2021/06/30 07:13:54;;;;;;;0.47;0.28;;;;;;;35.40;27.69;97775.31;4990552;28;20059;-64
2021/06/30 07:16:20;;;;;;;2.53;0.32;;;;;;;35.34;27.76;97771.31;4990667;28;20031;-64
2021/06/30 07:18:46;;;;;;;0.28;0.28;;;;;;;35.30;27.44;97779.91;4987382;28;20031;-64
2021/06/30 07:21:12;;;;;;;0.75;0.40;;;;;;;35.29;27.54;97774.63;4990781;28;20034;-63
2021/06/30 07:23:38;;;;;;;0.17;0.13;;;;;;;35.27;27.15;97775.03;4988591;28;20038;-64
2021/06/30 07:26:04;;;;;;;0.28;0.28;;;;;;;35.22;27.04;97762.03;4989513;28;20045;-63
2021/06/30 07:28:31;;;;;;;0.68;0.40;;;;;;;35.13;27.58;97770.31;4990790;28;20037;-63
2021/06/30 07:30:57;;;;;;;0.50;0.50;;;;;;;35.10;27.32;97768.28;4990153;28;20038;-63
2021/06/30 07:33:23;;;;;;;0.47;0.47;;;;;;;35.09;27.53;97761.78;4990131;28;20034;-64
2021/06/30 07:35:49;;;;;;;0.20;0.20;;;;;;;35.06;27.44;97771.19;4990596;28;20526;-66
2021/06/30 07:38:15;;;;;;;0.15;0.15;;;;;;;35.03;27.37;97771.25;4990358;28;20120;-65
2021/06/30 07:40:42;;;;;;;0.85;0.70;;;;;;;34.99;27.11;97750.50;4991664;28;20039;-66
2021/06/30 07:43:08;;;;;;;0.40;0.40;;;;;;;34.95;27.38;97764.78;4990647;28;20038;-64
2021/06/30 07:45:37;;;;;;;0.22;0.22;;;;;;;34.91;27.21;97762.00;4989327;28;20043;-68
2021/06/30 07:48:05;;;;;;;0.10;0.10;;;;;;;34.91;27.61;97762.00;4976663;28;20053;-66
2021/06/30 07:50:31;;;;;;;0.88;0.52;;;;;;;34.89;27.45;97767.31;4989557;28;20085;-65
2021/06/30 07:52:58;;;;;;;0.50;0.40;;;;;;;34.92;27.50;97765.63;4989835;28;20038;-66
2021/06/30 07:55:24;;;;;;;0.13;0.13;;;;;;;35.02;27.02;97763.91;4990037;28;20034;-66
2021/06/30 07:57:50;;;;;;;0.30;0.30;;;;;;;35.14;27.11;97769.06;4994560;28;20089;-63
2021/06/30 08:00:19;;;;;;;0.25;0.25;;;;;;;35.22;26.99;97752.69;4993100;28;20034;-66
2021/06/30 08:02:44;;;;;;;0.65;0.43;;;;;;;35.29;26.56;97754.66;4992491;28;20580;-62
2021/06/30 08:05:11;;;;;;;0.35;0.20;;;;;;;35.26;27.14;97753.41;4993845;28;20146;-60
2021/06/30 08:07:37;;;;;;;0.10;0.10;;;;;;;35.26;26.64;97759.94;4990936;28;20038;-65
2021/06/30 08:10:07;;;;;;;0.10;0.10;;;;;;;35.26;26.82;97748.53;4992321;28;20399;-63
2021/06/30 08:12:32;;;;;;;0.20;0.20;;;;;;;35.25;26.75;97766.88;4994198;28;20061;-63
2021/06/30 08:14:58;;;;;;;1.75;0.68;;;;;;;35.29;26.96;97758.28;4976688;28;20034;-63
2021/06/30 08:17:24;;;;;;;0.10;0.10;;;;;;;35.31;26.95;97755.00;4993953;28;20042;-65
2021/06/30 08:19:50;;;;;;;0.40;0.40;;;;;;;35.34;26.84;97757.84;4993830;28;20034;-66
2021/06/30 08:22:15;;;;;;;0.20;0.20;;;;;;;35.34;26.62;97757.84;4994036;28;20507;-64
2021/06/30 08:24:43;;;;;;;0.30;0.30;;;;;;;35.41;26.72;97754.91;4976178;28;20522;-65
2021/06/30 08:27:10;;;;;;;1.20;0.55;;;;;;;35.55;26.60;97753.88;4993621;28;20455;-64
2021/06/30 08:29:37;;;;;;;0.90;0.40;;;;;;;35.77;26.61;97739.31;4976835;28;20050;-64
2021/06/30 08:32:04;;;;;;;0.85;0.75;;;;;;;35.99;26.09;97731.25;4993513;28;20042;-63
2021/06/30 08:34:30;;;;;;;0.20;0.20;;;;;;;36.21;26.10;97736.59;4976708;28;20039;-64
2021/06/30 08:37:01;;;;;;;1.48;0.47;;;;;;;36.48;25.99;97737.38;4994288;28;20038;-68
2021/06/30 08:39:28;;;;;;;0.40;0.40;;;;;;;36.67;25.36;97737.84;4979548;28;20042;-65
2021/06/30 08:41:54;;;;;;;0.75;0.75;;;;;;;36.63;25.59;97739.97;4978730;28;20034;-65
2021/06/30 08:44:20;;;;;;;0.17;0.17;;;;;;;36.54;25.99;97748.31;4978633;28;20034;-67
2021/06/30 08:46:47;;;;;;;0.15;0.15;;;;;;;36.58;25.73;97738.41;4996648;28;20034;-66
2021/06/30 08:49:23;;;;;;;0.17;0.17;;;;;;;36.74;25.75;97734.06;4996944;28;20045;-65
2021/06/30 08:51:52;;;;;;;1.70;0.28;;;;;;;36.82;25.82;97732.69;4991631;28;20031;-61
2021/06/30 08:54:19;;;;;;;0.30;0.30;;;;;;;36.80;25.85;97726.59;4980045;28;20045;-61
2021/06/30 08:56:47;;;;;;;0.50;0.50;;;;;;;36.71;25.70;97717.78;4996173;28;20496;-61
2021/06/30 08:59:13;;;;;;;0.60;0.47;;;;;;;36.78;25.85;97729.09;4996031;28;20042;-60
2021/06/30 09:01:38;;;;;;;0.98;0.35;;;;;;;36.79;25.75;97724.97;4978167;28;20564;-60
2021/06/30 09:04:06;;;;;;;1.40;0.45;;;;;;;36.76;25.97;97720.94;4996492;28;20027;-59
2021/06/30 09:06:35;;;;;;;0.50;0.35;;;;;;;36.62;26.22;97715.50;4995697;28;20121;-59
2021/06/30 09:09:07;;;;;;;0.20;0.20;;;;;;;36.49;26.41;97712.44;4994970;28;20050;-60
2021/06/30 09:11:34;;;;;;;0.10;0.10;;;;;;;36.32;26.16;97722.16;4996168;28;20073;-60
2021/06/30 09:14:22;;;;;;;0.30;0.22;;;;;;;36.11;26.27;97716.34;4995645;28;20050;-60
2021/06/30 09:16:49;;;;;;;0.57;0.57;;;;;;;35.89;26.99;97717.94;4995200;28;20041;-59
2021/06/30 09:19:15;;;;;;;0.55;0.35;;;;;;;35.73;26.61;97727.13;4995499;28;20034;-61
2021/06/30 09:21:41;;;;;;;0.22;0.22;;;;;;;35.56;27.38;97721.25;4980032;28;20039;-61
2021/06/30 09:24:18;;;;;;;0.52;0.38;;;;;;;35.45;27.43;97714.88;4996169;28;20072;-61
2021/06/30 09:26:57;;;;;;;0.63;0.38;;;;;;;35.35;26.98;97710.13;4995858;28;20034;-63
2021/06/30 09:29:23;;;;;;;0.70;0.20;;;;;;;35.24;27.15;97699.63;4977914;28;20045;-60
2021/06/30 09:31:51;;;;;;;1.27;0.73;;;;;;;35.14;27.09;97696.94;4995557;28;20072;-62
2021/06/30 09:34:21;;;;;;;0.10;0.10;;;;;;;35.05;27.54;97691.75;4978419;28;20034;-63
2021/06/30 09:37:00;;;;;;;0.25;0.25;;;;;;;34.96;27.18;97682.91;4995306;28;20038;-60
2021/06/30 09:39:27;;;;;;;0.38;0.38;;;;;;;34.87;27.23;97675.66;4995266;28;20031;-60
2021/06/30 09:42:32;;;;;;;0.32;0.32;;;;;;;34.67;27.41;97688.91;4995586;28;20042;-60
2021/06/30 09:45:32;;;;;;;0.10;0.10;;;;;;;34.55;28.00;97678.84;4935356;29;20036;-64
2021/06/30 09:47:57;;;;;;;0.10;0.10;;;;;;;34.47;27.62;97686.69;4916652;29;20419;-61
2021/06/30 09:50:39;;;;;;;0.30;0.30;;;;;;;34.45;27.49;97677.72;4916147;29;20040;-60
2021/06/30 09:53:05;;;;;;;0.10;0.10;;;;;;;34.45;27.64;97688.34;4916423;29;20119;-60
2021/06/30 09:55:34;;;;;;;0.75;0.35;;;;;;;34.50;27.36;97677.28;4915995;29;20648;-60
2021/06/30 09:58:00;;;;;;;0.10;0.10;;;;;;;34.55;27.51;97676.81;4915925;29;20055;-61
2021/06/30 10:00:29;;;;;;;0.22;0.22;;;;;;;34.56;27.52;97672.72;4915999;29;20032;-62
2021/06/30 10:02:57;;;;;;;0.15;0.15;;;;;;;34.54;27.67;97672.34;4916416;29;20048;-62
2021/06/30 10:05:41;;;;;;;0.38;0.38;;;;;;;34.52;27.56;97674.81;4916260;29;20068;-58
2021/06/30 10:08:14;;;;;;;0.10;0.10;;;;;;;34.50;27.49;97674.44;4916427;29;20036;-60
2021/06/30 10:10:40;;;;;;;1.05;0.38;;;;;;;34.51;27.57;97675.22;4899955;29;20141;-59
2021/06/30 10:13:07;;;;;;;0.17;0.17;;;;;;;34.55;27.14;97676.81;4899765;29;20510;-59
2021/06/30 10:15:33;;;;;;;0.00;0.00;;;;;;;34.54;27.37;97663.81;4899872;29;20040;-60
2021/06/30 10:18:03;;;;;;;0.10;0.10;;;;;;;34.46;27.66;97670.81;4916467;29;20069;-62
2021/06/30 10:20:29;;;;;;;0.28;0.28;;;;;;;34.42;27.32;97661.47;4903514;29;20042;-60
2021/06/30 10:22:55;;;;;;;0.60;0.60;;;;;;;34.41;27.48;97676.97;4950960;28;20436;-60
2021/06/30 10:25:21;;;;;;;0.50;0.43;;;;;;;34.41;27.64;97668.44;4994506;28;20154;-61
2021/06/30 10:27:47;;;;;;;1.95;0.25;;;;;;;34.39;27.64;97668.03;4994372;28;20042;-61
2021/06/30 10:30:15;;;;;;;0.15;0.15;;;;;;;34.39;27.46;97659.47;4977285;28;20082;-61
2021/06/30 10:32:57;;;;;;;1.15;0.52;;;;;;;34.40;27.28;97658.25;4994167;28;20519;-60
2021/06/30 10:35:25;;;;;;;0.20;0.20;;;;;;;34.37;27.72;97670.50;4994080;28;20034;-59
2021/06/30 10:37:53;;;;;;;0.15;0.15;;;;;;;34.34;27.38;97669.31;4993935;28;20030;-60
2021/06/30 10:40:20;;;;;;;0.15;0.15;;;;;;;34.31;27.72;97661.59;4994230;28;20080;-60
2021/06/30 10:42:48;;;;;;;0.10;0.10;;;;;;;34.27;27.66;97660.81;4994425;28;20057;-60
2021/06/30 10:45:13;;;;;;;0.13;0.13;;;;;;;34.25;27.74;97668.97;4993869;28;20076;-61
2021/06/30 10:47:45;;;;;;;0.60;0.30;;;;;;;34.27;27.62;97662.88;4976417;28;20585;-63
2021/06/30 10:50:22;;;;;;;0.10;0.10;;;;;;;34.27;27.32;97663.69;4994144;28;20065;-63
2021/06/30 10:52:53;;;;;;;0.00;0.00;;;;;;;34.25;27.82;97659.59;4976513;28;20088;-63
2021/06/30 10:55:54;;;;;;;0.10;0.10;;;;;;;34.23;27.21;97660.84;4994030;28;20034;-61
2021/06/30 10:58:30;;;;;;;0.20;0.20;;;;;;;34.17;27.73;97661.72;4933930;29;20044;-61
2021/06/30 11:01:03;;;;;;;0.38;0.38;;;;;;;34.11;27.43;97667.03;4918470;29;20530;-62
2021/06/30 11:03:35;;;;;;;0.65;0.38;;;;;;;34.08;27.95;97647.16;4934153;29;20051;-61
2021/06/30 11:06:06;;;;;;;1.10;0.40;;;;;;;34.07;27.55;97660.59;4933579;29;20036;-62
2021/06/30 11:08:43;;;;;;;3.13;0.47;;;;;;;34.03;27.51;97656.97;4934416;29;20052;-59
2021/06/30 11:11:11;;;;;;;0.40;0.40;;;;;;;33.99;27.85;97653.34;4933669;29;20038;-60
2021/06/30 11:13:57;;;;;;;0.52;0.52;;;;;;;33.96;27.92;97645.63;4917505;29;20051;-64
2021/06/30 11:19:28;;;;;;;0.20;0.20;;;;;;;33.99;27.75;97644.78;4933649;29;20035;-60
2021/06/30 11:22:04;;;;;;;0.20;0.20;;;;;;;34.01;27.93;97650.88;4917672;29;20469;-60
2021/06/30 11:24:46;;;;;;;0.47;0.40;;;;;;;34.03;27.80;97643.53;4933413;29;20517;-60
2021/06/30 11:27:13;;;;;;;0.25;0.25;;;;;;;34.08;27.75;97652.84;4933594;29;20135;-60
2021/06/30 11:29:48;;;;;;;0.22;0.22;;;;;;;34.13;27.52;97644.66;4917484;29;20042;-60
2021/06/30 11:32:38;;;;;;;0.43;0.43;;;;;;;34.17;27.55;97644.63;4933033;29;20039;-60
2021/06/30 11:35:23;;;;;;;0.30;0.30;;;;;;;34.10;27.47;97634.13;4974546;28;20049;-60
2021/06/30 11:38:20;;;;;;;0.20;0.20;;;;;;;34.07;27.89;97640.66;4993601;28;20061;-60
2021/06/30 11:41:04;;;;;;;0.50;0.40;;;;;;;34.05;27.81;97629.69;4933979;29;20044;-61